createdAt,value
2023-04-28T00:00:00.485Z,10.2
2023-04-28T00:01:00.574Z,10.1
2023-04-28T00:02:00.500Z,10.1
2023-04-28T00:03:00.582Z,10.1
2023-04-28T00:04:00.657Z,10.1
2023-04-28T00:05:00.640Z,10.1
2023-04-28T00:06:00.778Z,10.1
2023-04-28T00:07:00.514Z,10.1
2023-04-28T00:08:00.519Z,10.1
2023-04-28T00:09:00.589Z,10.1
2023-04-28T00:10:00.523Z,10.1
2023-04-28T00:11:00.524Z,10.1
2023-04-28T00:12:00.529Z,10.1
2023-04-28T00:13:00.495Z,10.1
2023-04-28T00:14:00.500Z,10.1
2023-04-28T00:15:00.544Z,10.1
2023-04-28T00:16:00.522Z,10.1
2023-04-28T00:17:00.557Z,10.1
2023-04-28T00:18:00.578Z,10.1
2023-04-28T00:19:00.570Z,10.1
2023-04-28T00:20:00.516Z,10.1
2023-04-28T00:21:00.522Z,10.1
2023-04-28T00:22:00.519Z,10.1
2023-04-28T00:23:00.526Z,10.1
2023-04-28T00:24:00.517Z,10.1
2023-04-28T00:25:00.543Z,10.1
2023-04-28T00:26:00.531Z,10.1
2023-04-28T00:27:00.556Z,10.1
2023-04-28T00:28:00.516Z,10.1
2023-04-28T00:29:00.531Z,10.1
2023-04-28T00:30:00.613Z,10.2
2023-04-28T00:31:00.503Z,10.2
2023-04-28T00:32:00.565Z,10.2
2023-04-28T00:33:00.644Z,10.2
2023-04-28T00:34:00.594Z,10.2
2023-04-28T00:35:00.540Z,10.2
2023-04-28T00:36:00.554Z,10.2
2023-04-28T00:37:00.548Z,10.2
2023-04-28T00:38:00.537Z,10.2
2023-04-28T00:39:00.521Z,10.2
2023-04-28T00:40:02.224Z,10.2
2023-04-28T00:41:00.553Z,10.3
2023-04-28T00:42:00.540Z,10.2
2023-04-28T00:43:00.524Z,10.3
2023-04-28T00:44:00.597Z,10.3
2023-04-28T00:45:00.530Z,10.3
2023-04-28T00:46:00.564Z,10.3
2023-04-28T00:47:00.539Z,10.3
2023-04-28T00:48:00.563Z,10.3
2023-04-28T00:49:00.525Z,10.3
2023-04-28T00:50:00.566Z,10.3
2023-04-28T00:51:00.604Z,10.3
2023-04-28T00:52:00.557Z,10.3
2023-04-28T00:53:00.529Z,10.3
2023-04-28T00:54:00.547Z,10.3
2023-04-28T00:55:00.537Z,10.4
2023-04-28T00:56:00.629Z,10.4
2023-04-28T00:57:00.549Z,10.4
2023-04-28T00:58:00.544Z,10.4
2023-04-28T00:59:00.564Z,10.4
2023-04-28T01:00:00.567Z,10.4
2023-04-28T01:01:00.597Z,10.4
2023-04-28T01:02:00.716Z,10.4
2023-04-28T01:03:00.739Z,10.4
2023-04-28T01:04:00.793Z,10.4
2023-04-28T01:05:00.652Z,10.4
2023-04-28T01:06:00.614Z,10.4
2023-04-28T01:07:00.583Z,10.4
2023-04-28T01:08:00.601Z,10.4
2023-04-28T01:09:00.624Z,10.4
2023-04-28T01:10:00.582Z,10.4
2023-04-28T01:11:00.609Z,10.4
2023-04-28T01:12:00.606Z,10.4
2023-04-28T01:13:00.637Z,10.4
2023-04-28T01:14:00.598Z,10.4
2023-04-28T01:15:00.594Z,10.4
2023-04-28T01:16:00.633Z,10.4
2023-04-28T01:17:00.602Z,10.4
2023-04-28T01:18:00.617Z,10.4
2023-04-28T01:19:00.596Z,10.4
2023-04-28T01:20:00.615Z,10.4
2023-04-28T01:21:00.596Z,10.4
2023-04-28T01:22:00.604Z,10.4
2023-04-28T01:23:00.675Z,10.4
2023-04-28T01:24:00.628Z,10.4
2023-04-28T01:25:00.584Z,10.4
2023-04-28T01:26:00.599Z,10.4
2023-04-28T01:27:00.595Z,10.4
2023-04-28T01:28:00.581Z,10.4
2023-04-28T01:29:00.598Z,10.4
2023-04-28T01:30:00.602Z,10.4
2023-04-28T01:31:00.596Z,10.4
2023-04-28T01:32:00.674Z,10.4
2023-04-28T01:33:00.694Z,10.4
2023-04-28T01:34:00.598Z,10.4
2023-04-28T01:35:00.582Z,10.4
2023-04-28T01:36:00.615Z,10.4
2023-04-28T01:37:00.634Z,10.4
2023-04-28T01:38:00.604Z,10.4
2023-04-28T01:39:00.630Z,10.4
2023-04-28T01:40:00.602Z,10.4
2023-04-28T01:41:00.602Z,10.4
2023-04-28T01:42:00.608Z,10.5
2023-04-28T01:43:00.633Z,10.5
2023-04-28T01:44:00.586Z,10.4
2023-04-28T01:45:00.608Z,10.4
2023-04-28T01:46:00.618Z,10.4
2023-04-28T01:47:00.619Z,10.4
2023-04-28T01:48:00.632Z,10.4
2023-04-28T01:49:00.605Z,10.4
2023-04-28T01:50:00.637Z,10.4
2023-04-28T01:51:00.603Z,10.4
2023-04-28T01:52:00.640Z,10.4
2023-04-28T01:53:00.601Z,10.5
2023-04-28T01:54:00.660Z,10.5
2023-04-28T01:55:00.652Z,10.5
2023-04-28T01:56:00.623Z,10.6
2023-04-28T01:57:00.615Z,10.5
2023-04-28T01:58:00.601Z,10.5
2023-04-28T01:59:00.600Z,10.5
2023-04-28T02:00:00.737Z,10.5
2023-04-28T02:01:01.613Z,10.5
2023-04-28T02:02:01.914Z,10.5
2023-04-28T02:03:01.678Z,10.5
2023-04-28T02:04:01.952Z,10.5
2023-04-28T02:05:01.655Z,10.6
2023-04-28T02:06:01.644Z,10.6
2023-04-28T02:07:01.634Z,10.6
2023-04-28T02:08:01.812Z,10.6
2023-04-28T02:09:01.691Z,10.6
2023-04-28T02:10:02.132Z,10.6
2023-04-28T02:11:01.751Z,10.6
2023-04-28T02:12:01.731Z,10.6
2023-04-28T02:13:01.666Z,10.6
2023-04-28T02:14:01.618Z,10.6
2023-04-28T02:15:01.681Z,10.6
2023-04-28T02:16:01.810Z,10.6
2023-04-28T02:17:01.621Z,10.6
2023-04-28T02:18:01.754Z,10.6
2023-04-28T02:19:01.620Z,10.6
2023-04-28T02:20:01.779Z,10.6
2023-04-28T02:21:01.655Z,10.6
2023-04-28T02:22:01.635Z,10.6
2023-04-28T02:23:01.683Z,10.6
2023-04-28T02:24:01.679Z,10.7
2023-04-28T02:25:01.651Z,10.7
2023-04-28T02:26:01.838Z,10.7
2023-04-28T02:27:01.635Z,10.7
2023-04-28T02:28:01.764Z,10.7
2023-04-28T02:29:01.869Z,10.7
2023-04-28T02:30:01.924Z,10.7
2023-04-28T02:31:01.799Z,10.8
2023-04-28T02:32:01.703Z,10.8
2023-04-28T02:33:01.729Z,10.8
2023-04-28T02:34:01.653Z,10.8
2023-04-28T02:35:01.630Z,10.8
2023-04-28T02:36:01.660Z,10.8
2023-04-28T02:37:01.635Z,10.8
2023-04-28T02:38:01.860Z,10.8
2023-04-28T02:39:01.693Z,10.8
2023-04-28T02:40:01.671Z,10.7
2023-04-28T02:41:01.660Z,10.8
2023-04-28T02:42:01.652Z,10.8
2023-04-28T02:43:01.644Z,10.8
2023-04-28T02:44:01.623Z,10.8
2023-04-28T02:45:01.666Z,10.8
2023-04-28T02:46:01.653Z,10.8
2023-04-28T02:47:01.883Z,10.8
2023-04-28T02:48:01.681Z,10.8
2023-04-28T02:49:01.666Z,10.8
2023-04-28T02:50:01.809Z,10.8
2023-04-28T02:51:01.651Z,10.8
2023-04-28T02:52:01.643Z,10.8
2023-04-28T02:53:01.634Z,10.8
2023-04-28T02:54:01.644Z,10.8
2023-04-28T02:55:01.666Z,10.8
2023-04-28T02:56:01.656Z,10.8
2023-04-28T02:57:01.646Z,10.8
2023-04-28T02:58:01.663Z,10.8
2023-04-28T02:59:01.643Z,10.8
2023-04-28T03:00:02.789Z,10.8
2023-04-28T03:01:01.700Z,10.8
2023-04-28T03:02:01.643Z,10.8
2023-04-28T03:03:01.810Z,10.8
2023-04-28T03:04:01.915Z,10.8
2023-04-28T03:05:01.732Z,10.8
2023-04-28T03:06:01.676Z,10.8
2023-04-28T03:07:01.696Z,10.8
2023-04-28T03:08:02.786Z,10.8
2023-04-28T03:09:01.674Z,10.8
2023-04-28T03:10:01.919Z,10.8
2023-04-28T03:11:01.683Z,10.8
2023-04-28T03:12:01.665Z,10.8
2023-04-28T03:13:01.697Z,10.8
2023-04-28T03:14:01.749Z,10.8
2023-04-28T03:15:01.694Z,10.8
2023-04-28T03:16:01.727Z,10.8
2023-04-28T03:17:01.657Z,10.8
2023-04-28T03:18:01.738Z,10.8
2023-04-28T03:19:01.728Z,10.8
2023-04-28T03:20:03.164Z,10.8
2023-04-28T03:21:01.686Z,10.8
2023-04-28T03:22:01.685Z,10.8
2023-04-28T03:23:01.669Z,10.9
2023-04-28T03:24:12.873Z,10.9
2023-04-28T03:25:01.747Z,10.9
2023-04-28T03:26:01.751Z,10.9
2023-04-28T03:27:01.693Z,10.9
2023-04-28T03:28:01.689Z,10.9
2023-04-28T03:29:01.734Z,10.9
2023-04-28T03:30:01.833Z,10.9
2023-04-28T03:31:01.705Z,10.9
2023-04-28T03:32:01.728Z,10.9
2023-04-28T03:33:01.812Z,10.9
2023-04-28T03:34:01.706Z,10.9
2023-04-28T03:35:01.755Z,10.9
2023-04-28T03:36:01.743Z,10.9
2023-04-28T03:37:01.707Z,10.9
2023-04-28T03:38:01.709Z,10.9
2023-04-28T03:39:01.707Z,10.9
2023-04-28T03:40:01.849Z,10.9
2023-04-28T03:41:01.800Z,10.9
2023-04-28T03:42:01.736Z,10.9
2023-04-28T03:43:03.997Z,10.9
2023-04-28T03:44:01.765Z,10.9
2023-04-28T03:45:01.752Z,10.9
2023-04-28T03:46:01.809Z,10.9
2023-04-28T03:47:01.807Z,10.9
2023-04-28T03:48:01.757Z,10.9
2023-04-28T03:49:01.716Z,10.9
2023-04-28T03:50:01.823Z,10.9
2023-04-28T03:51:01.730Z,10.9
2023-04-28T03:52:01.730Z,10.9
2023-04-28T03:53:01.725Z,10.9
2023-04-28T03:54:01.759Z,10.9
2023-04-28T03:55:01.771Z,10.9
2023-04-28T03:56:01.757Z,10.9
2023-04-28T03:57:01.746Z,10.9
2023-04-28T03:58:01.747Z,10.9
2023-04-28T03:59:01.752Z,10.9
2023-04-28T04:00:01.882Z,10.9
2023-04-28T04:01:01.779Z,11
2023-04-28T04:02:01.824Z,11
2023-04-28T04:03:01.944Z,11
2023-04-28T04:04:01.904Z,11
2023-04-28T04:05:01.973Z,11
2023-04-28T04:06:01.751Z,11
2023-04-28T04:07:01.790Z,11
2023-04-28T04:08:01.778Z,11
2023-04-28T04:09:01.748Z,11
2023-04-28T04:10:04.079Z,11
2023-04-28T04:11:01.774Z,11.1
2023-04-28T04:12:01.775Z,11.1
2023-04-28T04:13:01.795Z,11.1
2023-04-28T04:14:01.758Z,11.1
2023-04-28T04:15:01.859Z,11.1
2023-04-28T04:16:01.878Z,11.1
2023-04-28T04:17:01.807Z,11.1
2023-04-28T04:18:01.860Z,11.1
2023-04-28T04:19:01.779Z,11.1
2023-04-28T04:20:01.831Z,11.1
2023-04-28T04:21:01.799Z,11.1
2023-04-28T04:22:01.767Z,11.1
2023-04-28T04:23:01.801Z,11.1
2023-04-28T04:24:01.797Z,11.1
2023-04-28T04:25:01.826Z,11.1
2023-04-28T04:26:01.784Z,11.1
2023-04-28T04:27:01.823Z,11.1
2023-04-28T04:28:01.774Z,11.1
2023-04-28T04:29:01.791Z,11.1
2023-04-28T04:30:01.884Z,11.1
2023-04-28T04:31:01.797Z,11.1
2023-04-28T04:32:01.754Z,11.1
2023-04-28T04:33:01.798Z,11.1
2023-04-28T04:34:01.781Z,11.1
2023-04-28T04:35:01.870Z,11.1
2023-04-28T04:36:01.781Z,11.1
2023-04-28T04:37:01.828Z,11.1
2023-04-28T04:38:01.843Z,11.1
2023-04-28T04:39:01.795Z,11.1
2023-04-28T04:40:01.835Z,11.1
2023-04-28T04:41:01.789Z,11.1
2023-04-28T04:42:10.176Z,11.1
2023-04-28T04:43:01.839Z,11.1
2023-04-28T04:44:01.768Z,11.1
2023-04-28T04:45:01.824Z,11.1
2023-04-28T04:46:01.855Z,11
2023-04-28T04:47:01.810Z,11
2023-04-28T04:48:01.929Z,11
2023-04-28T04:49:01.900Z,11
2023-04-28T04:50:01.848Z,11
2023-04-28T04:51:01.791Z,11
2023-04-28T04:52:01.799Z,11
2023-04-28T04:53:01.804Z,10.9
2023-04-28T04:54:01.785Z,10.9
2023-04-28T04:55:01.804Z,10.9
2023-04-28T04:56:01.803Z,10.9
2023-04-28T04:57:01.803Z,10.9
2023-04-28T04:58:01.823Z,10.9
2023-04-28T04:59:01.801Z,10.9
2023-04-28T05:00:01.906Z,10.9
2023-04-28T05:01:01.792Z,10.9
2023-04-28T05:02:01.858Z,10.9
2023-04-28T05:03:01.982Z,10.9
2023-04-28T05:04:01.956Z,10.9
2023-04-28T05:05:16.877Z,10.9
2023-04-28T05:06:01.796Z,10.9
2023-04-28T05:07:01.809Z,11
2023-04-28T05:08:01.823Z,11
2023-04-28T05:09:01.909Z,11
2023-04-28T05:10:01.915Z,11
2023-04-28T05:11:01.798Z,11
2023-04-28T05:12:01.783Z,11
2023-04-28T05:13:01.874Z,11.1
2023-04-28T05:14:01.805Z,11
2023-04-28T05:15:01.829Z,11
2023-04-28T05:16:01.810Z,11
2023-04-28T05:17:01.846Z,11
2023-04-28T05:18:01.830Z,11
2023-04-28T05:19:01.818Z,11
2023-04-28T05:20:01.854Z,11
2023-04-28T05:21:01.804Z,11
2023-04-28T05:22:01.796Z,11
2023-04-28T05:23:01.800Z,11
2023-04-28T05:24:01.804Z,11
2023-04-28T05:25:01.835Z,11
2023-04-28T05:26:01.788Z,11
2023-04-28T05:27:02.820Z,11
2023-04-28T05:28:01.794Z,10.9
2023-04-28T05:29:01.798Z,10.9
2023-04-28T05:30:01.828Z,10.9
2023-04-28T05:31:01.796Z,10.9
2023-04-28T05:32:01.873Z,10.9
2023-04-28T05:33:01.905Z,10.9
2023-04-28T05:34:01.927Z,10.9
2023-04-28T05:35:01.801Z,10.9
2023-04-28T05:36:01.819Z,10.9
2023-04-28T05:37:01.843Z,10.9
2023-04-28T05:38:01.836Z,10.8
2023-04-28T05:39:01.838Z,10.8
2023-04-28T05:40:01.830Z,10.9
2023-04-28T05:41:01.935Z,10.8
2023-04-28T05:42:01.955Z,10.9
2023-04-28T05:43:01.892Z,10.9
2023-04-28T05:44:02.234Z,10.9
2023-04-28T05:45:02.679Z,10.9
2023-04-28T05:46:01.606Z,10.9
2023-04-28T05:47:01.660Z,10.9
2023-04-28T05:48:01.197Z,10.9
2023-04-28T05:49:01.210Z,10.9
2023-04-28T05:50:01.020Z,10.9
2023-04-28T05:51:00.863Z,10.9
2023-04-28T05:52:00.872Z,11
2023-04-28T05:53:00.793Z,11
2023-04-28T05:54:00.703Z,11
2023-04-28T05:55:00.791Z,11
2023-04-28T05:56:00.611Z,11.1
2023-04-28T05:57:01.595Z,11.1
2023-04-28T05:58:00.655Z,11.1
2023-04-28T05:59:00.649Z,11.1
2023-04-28T06:00:00.798Z,11
2023-04-28T06:01:00.727Z,11
2023-04-28T06:02:00.881Z,11
2023-04-28T06:03:00.949Z,11
2023-04-28T06:04:01.291Z,10.9
2023-04-28T06:05:00.902Z,11
2023-04-28T06:06:00.704Z,11
2023-04-28T06:07:00.631Z,11
2023-04-28T06:08:00.586Z,11
2023-04-28T06:09:00.634Z,11
2023-04-28T06:10:00.674Z,11.1
2023-04-28T06:11:00.583Z,11.1
2023-04-28T06:12:00.727Z,11.1
2023-04-28T06:13:00.680Z,11.1
2023-04-28T06:14:00.552Z,11.1
2023-04-28T06:15:00.569Z,11.1
2023-04-28T06:16:00.721Z,11.1
2023-04-28T06:17:00.567Z,11.1
2023-04-28T06:18:00.650Z,11.1
2023-04-28T06:19:00.607Z,11.2
2023-04-28T06:20:00.588Z,11.1
2023-04-28T06:21:00.571Z,11.2
2023-04-28T06:22:00.578Z,11.2
2023-04-28T06:23:00.589Z,11.2
2023-04-28T06:24:00.568Z,11.2
2023-04-28T06:25:00.607Z,11.2
2023-04-28T06:26:00.599Z,11.2
2023-04-28T06:27:00.573Z,11.2
2023-04-28T06:28:00.573Z,11.2
2023-04-28T06:29:00.601Z,11.2
2023-04-28T06:30:00.663Z,11.2
2023-04-28T06:31:00.621Z,11.2
2023-04-28T06:32:00.583Z,11.2
2023-04-28T06:33:00.629Z,11.2
2023-04-28T06:34:00.578Z,11.3
2023-04-28T06:35:00.593Z,11.3
2023-04-28T06:36:00.602Z,11.3
2023-04-28T06:37:00.608Z,11.3
2023-04-28T06:38:00.582Z,11.3
2023-04-28T06:39:00.599Z,11.4
2023-04-28T06:40:00.621Z,11.4
2023-04-28T06:41:00.585Z,11.4
2023-04-28T06:42:00.578Z,11.4
2023-04-28T06:43:00.615Z,11.4
2023-04-28T06:44:00.624Z,11.4
2023-04-28T06:45:00.625Z,11.4
2023-04-28T06:46:00.620Z,11.4
2023-04-28T06:47:00.656Z,11.5
2023-04-28T06:48:00.651Z,11.5
2023-04-28T06:49:00.891Z,11.5
2023-04-28T06:50:00.727Z,11.5
2023-04-28T06:51:00.616Z,11.5
2023-04-28T06:52:00.632Z,11.6
2023-04-28T06:53:00.706Z,11.6
2023-04-28T06:54:00.615Z,11.6
2023-04-28T06:55:00.785Z,11.6
2023-04-28T06:56:00.599Z,11.6
2023-04-28T06:57:00.643Z,11.6
2023-04-28T06:58:00.612Z,11.6
2023-04-28T06:59:00.631Z,11.7
2023-04-28T07:00:00.633Z,11.7
2023-04-28T07:01:00.648Z,11.7
2023-04-28T07:02:00.718Z,11.7
2023-04-28T07:03:00.932Z,11.7
2023-04-28T07:04:00.732Z,11.7
2023-04-28T07:05:00.659Z,11.7
2023-04-28T07:06:00.658Z,11.8
2023-04-28T07:07:00.624Z,11.8
2023-04-28T07:08:00.649Z,11.8
2023-04-28T07:09:00.635Z,11.8
2023-04-28T07:10:00.684Z,11.8
2023-04-28T07:11:00.614Z,11.8
2023-04-28T07:12:00.625Z,11.9
2023-04-28T07:13:00.625Z,11.9
2023-04-28T07:14:00.620Z,11.9
2023-04-28T07:15:00.692Z,11.9
2023-04-28T07:16:00.804Z,11.9
2023-04-28T07:17:00.660Z,11.9
2023-04-28T07:18:00.674Z,11.9
2023-04-28T07:19:00.646Z,11.9
2023-04-28T07:20:01.077Z,11.9
2023-04-28T07:21:01.481Z,11.9
2023-04-28T07:22:00.640Z,11.9
2023-04-28T07:23:00.682Z,11.9
2023-04-28T07:24:00.665Z,11.9
2023-04-28T07:25:00.664Z,11.9
2023-04-28T07:26:00.655Z,11.9
2023-04-28T07:27:00.730Z,11.9
2023-04-28T07:28:00.657Z,11.9
2023-04-28T07:29:00.669Z,11.9
2023-04-28T07:30:03.152Z,11.9
2023-04-28T07:31:00.686Z,11.9
2023-04-28T07:32:00.805Z,11.9
2023-04-28T07:33:00.758Z,11.9
2023-04-28T07:34:00.694Z,11.9
2023-04-28T07:35:00.703Z,11.9
2023-04-28T07:36:00.683Z,11.9
2023-04-28T07:37:00.739Z,11.9
2023-04-28T07:38:00.676Z,11.9
2023-04-28T07:39:00.667Z,11.9
2023-04-28T07:40:00.787Z,11.9
2023-04-28T07:41:00.697Z,11.9
2023-04-28T07:42:00.689Z,11.9
2023-04-28T07:43:00.670Z,11.9
2023-04-28T07:44:00.671Z,11.9
2023-04-28T07:45:00.858Z,11.9
2023-04-28T07:46:00.696Z,11.9
2023-04-28T07:47:00.676Z,11.9
2023-04-28T07:48:00.695Z,11.9
2023-04-28T07:49:00.665Z,11.9
2023-04-28T07:50:00.742Z,11.9
2023-04-28T07:51:00.688Z,11.9
2023-04-28T07:52:00.716Z,11.9
2023-04-28T07:53:00.659Z,11.9
2023-04-28T07:54:00.667Z,11.9
2023-04-28T07:55:00.683Z,11.9
2023-04-28T07:56:00.682Z,11.9
2023-04-28T07:57:00.706Z,11.9
2023-04-28T07:58:00.681Z,11.8
2023-04-28T07:59:00.680Z,11.8
2023-04-28T08:00:02.119Z,11.8
2023-04-28T08:01:00.712Z,11.8
2023-04-28T08:02:00.776Z,11.8
2023-04-28T08:03:00.859Z,11.8
2023-04-28T08:04:01.312Z,11.8
2023-04-28T08:05:01.005Z,11.8
2023-04-28T08:06:01.106Z,11.8
2023-04-28T08:07:00.692Z,11.8
2023-04-28T08:08:00.693Z,11.8
2023-04-28T08:09:00.688Z,11.8
2023-04-28T08:10:00.770Z,11.9
2023-04-28T08:11:00.698Z,11.9
2023-04-28T08:12:00.723Z,11.9
2023-04-28T08:13:00.693Z,11.9
2023-04-28T08:14:00.710Z,11.9
2023-04-28T08:15:00.772Z,11.9
2023-04-28T08:16:00.793Z,11.9
2023-04-28T08:17:00.727Z,11.9
2023-04-28T08:18:00.757Z,11.9
2023-04-28T08:19:01.810Z,11.9
2023-04-28T08:20:00.762Z,12
2023-04-28T08:21:00.691Z,12
2023-04-28T08:22:00.703Z,12
2023-04-28T08:23:00.709Z,12
2023-04-28T08:24:00.693Z,12
2023-04-28T08:25:01.742Z,12.1
2023-04-28T08:26:00.698Z,12.1
2023-04-28T08:27:00.702Z,12.1
2023-04-28T08:28:00.718Z,12.1
2023-04-28T08:29:01.718Z,12.1
2023-04-28T08:30:00.866Z,12.2
2023-04-28T08:31:00.814Z,12.2
2023-04-28T08:32:00.708Z,12.2
2023-04-28T08:33:00.718Z,12.2
2023-04-28T08:34:00.704Z,12.2
2023-04-28T08:35:00.838Z,12.2
2023-04-28T08:36:00.719Z,12.2
2023-04-28T08:37:00.722Z,12.3
2023-04-28T08:38:00.714Z,12.3
2023-04-28T08:39:00.711Z,12.3
2023-04-28T08:40:00.803Z,12.4
2023-04-28T08:41:01.672Z,12.4
2023-04-28T08:42:00.722Z,12.4
2023-04-28T08:43:00.747Z,12.4
2023-04-28T08:44:00.713Z,12.4
2023-04-28T08:45:00.744Z,12.4
2023-04-28T08:46:00.755Z,12.4
2023-04-28T08:47:00.782Z,12.4
2023-04-28T08:48:00.913Z,12.5
2023-04-28T08:49:00.717Z,12.5
2023-04-28T08:50:01.251Z,12.6
2023-04-28T08:51:00.715Z,12.6
2023-04-28T08:52:00.891Z,12.6
2023-04-28T08:53:00.929Z,12.6
2023-04-28T08:55:00.937Z,12.7
2023-04-28T08:56:00.881Z,12.7
2023-04-28T08:57:00.831Z,12.7
2023-04-28T08:58:00.820Z,12.8
2023-04-28T08:59:00.964Z,12.8
2023-04-28T09:00:01.177Z,12.8
2023-04-28T09:01:00.815Z,12.9
2023-04-28T09:02:00.899Z,12.9
2023-04-28T09:03:00.966Z,12.9
2023-04-28T09:04:01.050Z,13
2023-04-28T09:05:01.381Z,13
2023-04-28T09:06:00.913Z,13
2023-04-28T09:07:01.053Z,13
2023-04-28T09:08:00.917Z,13.1
2023-04-28T09:09:00.923Z,13.1
2023-04-28T09:10:01.129Z,13.1
2023-04-28T09:11:00.924Z,13.1
2023-04-28T09:12:00.911Z,13.1
2023-04-28T09:13:00.971Z,13.2
2023-04-28T09:14:00.976Z,13.2
2023-04-28T09:15:00.830Z,13.2
2023-04-28T09:16:01.157Z,13.3
2023-04-28T09:17:01.004Z,13.3
2023-04-28T09:18:00.803Z,13.4
2023-04-28T09:19:00.773Z,13.4
2023-04-28T09:20:00.880Z,13.4
2023-04-28T09:21:01.956Z,13.4
2023-04-28T09:22:05.564Z,13.4
2023-04-28T09:23:00.859Z,13.5
2023-04-28T09:24:00.786Z,13.5
2023-04-28T09:25:00.763Z,13.5
2023-04-28T09:26:00.757Z,13.5
2023-04-28T09:27:01.737Z,13.6
2023-04-28T09:28:00.778Z,13.6
2023-04-28T09:29:00.757Z,13.6
2023-04-28T09:30:00.867Z,13.6
2023-04-28T09:31:00.859Z,13.6
2023-04-28T09:32:00.771Z,13.6
2023-04-28T09:33:00.810Z,13.5
2023-04-28T09:34:00.762Z,13.6
2023-04-28T09:35:00.772Z,13.6
2023-04-28T09:36:00.774Z,13.5
2023-04-28T09:37:00.797Z,13.6
2023-04-28T09:38:00.849Z,13.5
2023-04-28T09:39:00.860Z,13.5
2023-04-28T09:40:00.852Z,13.5
2023-04-28T09:41:00.830Z,13.5
2023-04-28T09:42:00.782Z,13.5
2023-04-28T09:43:06.273Z,13.6
2023-04-28T09:44:00.777Z,13.6
2023-04-28T09:45:00.801Z,13.6
2023-04-28T09:46:00.868Z,13.6
2023-04-28T09:47:00.814Z,13.7
2023-04-28T09:48:00.826Z,13.8
2023-04-28T09:49:00.798Z,13.8
2023-04-28T09:50:00.880Z,13.9
2023-04-28T09:51:00.810Z,13.9
2023-04-28T09:52:00.803Z,14.1
2023-04-28T09:53:00.825Z,14.1
2023-04-28T09:54:00.793Z,14.2
2023-04-28T09:55:00.944Z,14.4
2023-04-28T09:56:00.848Z,14.4
2023-04-28T09:57:00.866Z,14.5
2023-04-28T09:58:00.821Z,14.6
2023-04-28T09:59:00.821Z,14.6
2023-04-28T10:00:00.952Z,14.6
2023-04-28T10:01:00.971Z,14.7
2023-04-28T10:02:04.618Z,14.7
2023-04-28T10:03:01.141Z,14.7
2023-04-28T10:04:00.964Z,14.7
2023-04-28T10:05:01.243Z,14.8
2023-04-28T10:06:00.872Z,14.9
2023-04-28T10:07:00.829Z,15
2023-04-28T10:08:00.802Z,15.2
2023-04-28T10:09:01.078Z,15.3
2023-04-28T10:10:00.880Z,15.4
2023-04-28T10:11:00.874Z,15.4
2023-04-28T10:12:00.850Z,15.4
2023-04-28T10:13:00.812Z,15.4
2023-04-28T10:14:00.892Z,15.4
2023-04-28T10:15:00.973Z,15.4
2023-04-28T10:16:00.839Z,15.4
2023-04-28T10:17:00.824Z,15.4
2023-04-28T10:18:00.928Z,15.3
2023-04-28T10:19:00.970Z,15.3
2023-04-28T10:20:00.913Z,15.2
2023-04-28T10:21:00.850Z,15.2
2023-04-28T10:22:00.849Z,15.2
2023-04-28T10:23:00.859Z,15.2
2023-04-28T10:24:00.825Z,15.1
2023-04-28T10:25:00.825Z,15
2023-04-28T10:26:00.822Z,14.9
2023-04-28T10:27:01.010Z,14.8
2023-04-28T10:28:00.832Z,14.8
2023-04-28T10:29:00.882Z,14.8
2023-04-28T10:30:01.029Z,14.8
2023-04-28T10:31:01.015Z,14.8
2023-04-28T10:32:00.864Z,14.8
2023-04-28T10:33:00.894Z,14.8
2023-04-28T10:34:00.934Z,14.8
2023-04-28T10:35:00.834Z,14.9
2023-04-28T10:36:00.838Z,14.9
2023-04-28T10:37:00.860Z,14.9
2023-04-28T10:38:00.896Z,14.9
2023-04-28T10:39:00.872Z,14.9
2023-04-28T10:40:00.909Z,14.9
2023-04-28T10:41:00.857Z,14.9
2023-04-28T10:42:00.864Z,15
2023-04-28T10:43:00.900Z,14.9
2023-04-28T10:44:00.898Z,14.9
2023-04-28T10:45:01.072Z,15
2023-04-28T10:46:01.071Z,15.1
2023-04-28T10:47:01.024Z,15.1
2023-04-28T10:48:00.980Z,15.1
2023-04-28T10:49:00.933Z,15.1
2023-04-28T10:50:01.243Z,15.1
2023-04-28T10:51:00.912Z,15.2
2023-04-28T10:52:00.950Z,15.2
2023-04-28T10:53:00.914Z,15.2
2023-04-28T10:54:00.921Z,15.2
2023-04-28T10:55:06.990Z,15.3
2023-04-28T10:56:01.004Z,15.4
2023-04-28T10:57:00.922Z,15.4
2023-04-28T10:58:00.962Z,15.4
2023-04-28T10:59:01.012Z,15.5
2023-04-28T11:00:01.182Z,15.5
2023-04-28T11:01:00.978Z,15.5
2023-04-28T11:02:01.029Z,15.5
2023-04-28T11:03:01.106Z,15.4
2023-04-28T11:04:01.430Z,15.4
2023-04-28T11:05:01.012Z,15.4
2023-04-28T11:06:00.950Z,15.4
2023-04-28T11:07:01.009Z,15.5
2023-04-28T11:08:01.078Z,15.5
2023-04-28T11:09:01.180Z,15.4
2023-04-28T11:10:01.065Z,15.5
2023-04-28T11:11:01.047Z,15.6
2023-04-28T11:12:00.972Z,15.6
2023-04-28T11:13:00.981Z,15.7
2023-04-28T11:14:00.919Z,15.7
2023-04-28T11:15:01.026Z,15.8
2023-04-28T11:16:00.987Z,15.9
2023-04-28T11:17:00.948Z,15.9
2023-04-28T11:18:00.964Z,15.9
2023-04-28T11:19:00.938Z,15.9
2023-04-28T11:20:00.959Z,15.9
2023-04-28T11:21:00.896Z,15.9
2023-04-28T11:22:00.893Z,15.9
2023-04-28T11:23:00.890Z,15.8
2023-04-28T11:24:00.936Z,15.8
2023-04-28T11:25:00.920Z,15.8
2023-04-28T11:26:00.900Z,15.8
2023-04-28T11:27:00.929Z,15.8
2023-04-28T11:28:00.936Z,15.8
2023-04-28T11:29:00.939Z,15.8
2023-04-28T11:30:01.187Z,15.8
2023-04-28T11:31:00.908Z,15.8
2023-04-28T11:32:00.963Z,15.7
2023-04-28T11:33:00.960Z,15.7
2023-04-28T11:34:00.930Z,15.7
2023-04-28T11:35:00.927Z,15.7
2023-04-28T11:36:00.899Z,15.7
2023-04-28T11:37:00.921Z,15.7
2023-04-28T11:38:00.916Z,15.7
2023-04-28T11:39:00.922Z,15.7
2023-04-28T11:40:00.990Z,15.7
2023-04-28T11:41:00.972Z,15.6
2023-04-28T11:42:00.969Z,15.6
2023-04-28T11:43:01.911Z,15.6
2023-04-28T11:44:00.945Z,15.6
2023-04-28T11:45:00.952Z,15.7
2023-04-28T11:46:00.918Z,15.7
2023-04-28T11:47:01.462Z,15.7
2023-04-28T11:48:00.920Z,15.7
2023-04-28T11:49:00.809Z,15.7
2023-04-28T11:50:00.875Z,15.7
2023-04-28T11:51:00.743Z,15.7
2023-04-28T11:52:00.746Z,15.8
2023-04-28T11:53:00.729Z,15.8
2023-04-28T11:54:00.741Z,15.8
2023-04-28T11:55:00.801Z,15.9
2023-04-28T11:56:00.608Z,15.9
2023-04-28T11:57:00.903Z,15.9
2023-04-28T11:58:00.545Z,15.9
2023-04-28T11:59:01.754Z,16
2023-04-28T12:00:03.912Z,16
2023-04-28T12:01:02.486Z,16
2023-04-28T12:02:00.831Z,16.1
2023-04-28T12:03:04.615Z,16.1
2023-04-28T12:04:01.890Z,16.1
2023-04-28T12:05:02.644Z,16.2
2023-04-28T12:06:00.576Z,16.2
2023-04-28T12:07:00.668Z,16.3
2023-04-28T12:08:00.559Z,16.4
2023-04-28T12:09:00.498Z,16.4
2023-04-28T12:10:00.564Z,16.4
2023-04-28T12:11:00.510Z,16.6
2023-04-28T12:12:00.557Z,16.6
2023-04-28T12:13:00.531Z,16.8
2023-04-28T12:14:00.590Z,16.8
2023-04-28T12:15:00.524Z,16.8
2023-04-28T12:16:00.572Z,16.8
2023-04-28T12:17:00.548Z,16.7
2023-04-28T12:18:00.513Z,16.7
2023-04-28T12:19:00.505Z,16.6
2023-04-28T12:20:00.535Z,16.6
2023-04-28T12:21:00.613Z,16.5
2023-04-28T12:22:00.641Z,16.4
2023-04-28T12:23:00.514Z,16.4
2023-04-28T12:24:00.553Z,16.4
2023-04-28T12:25:00.541Z,16.3
2023-04-28T12:26:00.802Z,16.3
2023-04-28T12:27:01.615Z,16.2
2023-04-28T12:28:00.588Z,16.2
2023-04-28T12:29:00.696Z,16.2
2023-04-28T12:30:00.791Z,16.2
2023-04-28T12:31:00.620Z,16.1
2023-04-28T12:32:00.910Z,16.1
2023-04-28T12:33:02.065Z,16.1
2023-04-28T12:34:03.386Z,16.2
2023-04-28T12:35:04.663Z,16.2
2023-04-28T12:36:01.732Z,16.4
2023-04-28T12:37:01.328Z,16.4
2023-04-28T12:38:01.698Z,16.6
2023-04-28T12:39:00.810Z,16.6
2023-04-28T12:40:01.125Z,16.6
2023-04-28T12:41:00.938Z,16.6
2023-04-28T12:42:00.778Z,16.6
2023-04-28T12:43:00.794Z,16.6
2023-04-28T12:44:01.773Z,16.6
2023-04-28T12:45:00.546Z,16.5
2023-04-28T12:46:00.591Z,16.4
2023-04-28T12:47:00.527Z,16.4
2023-04-28T12:48:00.583Z,16.4
2023-04-28T12:49:00.531Z,16.3
2023-04-28T12:50:00.546Z,16.3
2023-04-28T12:51:00.586Z,16.3
2023-04-28T12:52:00.552Z,16.3
2023-04-28T12:53:00.532Z,16.3
2023-04-28T12:54:00.543Z,16.4
2023-04-28T12:55:00.582Z,16.4
2023-04-28T12:56:00.602Z,16.4
2023-04-28T12:57:00.661Z,16.4
2023-04-28T12:58:00.546Z,16.4
2023-04-28T12:59:00.558Z,16.4
2023-04-28T13:00:00.610Z,16.4
2023-04-28T13:01:00.539Z,16.4
2023-04-28T13:02:00.749Z,16.4
2023-04-28T13:03:00.677Z,16.5
2023-04-28T13:04:00.760Z,16.6
2023-04-28T13:05:00.596Z,16.7
2023-04-28T13:06:00.553Z,16.8
2023-04-28T13:07:00.542Z,16.9
2023-04-28T13:08:01.674Z,17.1
2023-04-28T13:09:00.552Z,17.3
2023-04-28T13:10:00.583Z,17.4
2023-04-28T13:11:03.026Z,17.4
2023-04-28T13:12:00.563Z,17.5
2023-04-28T13:13:00.563Z,17.6
2023-04-28T13:14:00.560Z,17.8
2023-04-28T13:15:00.566Z,17.8
2023-04-28T13:16:00.610Z,17.9
2023-04-28T13:17:00.569Z,17.9
2023-04-28T13:18:00.670Z,17.9
2023-04-28T13:19:00.581Z,18
2023-04-28T13:20:00.560Z,18.1
2023-04-28T13:21:00.569Z,18.2
2023-04-28T13:22:00.585Z,18.2
2023-04-28T13:23:00.569Z,18.2